createdAt,value
2017-01-02T00:00:42.604Z,20.76
2017-01-02T00:01:42.660Z,20.8
2017-01-02T00:02:42.657Z,20.79
2017-01-02T00:03:42.682Z,20.77
2017-01-02T00:04:42.715Z,20.77
2017-01-02T00:05:43.128Z,20.72
2017-01-02T00:06:42.763Z,20.79
2017-01-02T00:07:42.392Z,20.74
2017-01-02T00:08:42.817Z,20.79
2017-01-02T00:09:43.246Z,20.76
2017-01-02T00:10:42.474Z,20.74
2017-01-02T00:11:42.895Z,20.8
2017-01-02T00:12:42.944Z,20.79
2017-01-02T00:13:43.337Z,20.73
2017-01-02T00:14:42.973Z,20.76
2017-01-02T00:15:42.610Z,20.8
2017-01-02T00:16:43.435Z,20.66
2017-01-02T00:17:43.052Z,20.64
2017-01-02T00:18:42.684Z,20.74
2017-01-02T00:19:42.718Z,20.76
2017-01-02T00:20:43.530Z,20.7
2017-01-02T00:21:42.767Z,20.76
2017-01-02T00:22:43.579Z,20.74
2017-01-02T00:23:43.220Z,20.69
2017-01-02T00:24:43.240Z,20.76
2017-01-02T00:25:42.881Z,20.66
2017-01-02T00:26:43.694Z,20.64
2017-01-02T00:27:43.322Z,20.61
2017-01-02T00:28:43.751Z,20.67
2017-01-02T00:29:43.376Z,20.69
2017-01-02T00:30:43.793Z,20.72
2017-01-02T00:31:43.821Z,20.61
2017-01-02T00:32:43.058Z,20.64
2017-01-02T00:33:43.882Z,20.64
2017-01-02T00:34:43.103Z,20.64
2017-01-02T00:35:43.536Z,20.64
2017-01-02T00:36:43.957Z,20.61
2017-01-02T00:37:43.586Z,20.69
2017-01-02T00:38:43.218Z,20.59
2017-01-02T00:39:43.640Z,20.62
2017-01-02T00:40:44.063Z,20.62
2017-01-02T00:41:43.690Z,20.61
2017-01-02T00:42:43.324Z,20.57
2017-01-02T00:43:43.746Z,20.67
2017-01-02T00:44:43.378Z,20.57
2017-01-02T00:45:43.799Z,20.59
2017-01-02T00:46:43.832Z,20.62
2017-01-02T00:47:43.849Z,20.66
2017-01-02T00:48:43.873Z,20.57
2017-01-02T00:49:43.906Z,20.64
2017-01-02T00:50:43.530Z,20.55
2017-01-02T00:51:44.347Z,20.52
2017-01-02T00:52:43.986Z,20.59
2017-01-02T00:53:44.436Z,20.54
2017-01-02T00:54:43.637Z,20.59
2017-01-02T00:55:44.462Z,20.54
2017-01-02T00:56:44.499Z,20.54
2017-01-02T00:57:44.116Z,20.54
2017-01-02T00:58:43.744Z,20.47
2017-01-02T00:59:43.768Z,20.57
2017-01-02T01:00:44.593Z,20.52
2017-01-02T01:01:43.822Z,20.61
2017-01-02T01:02:44.650Z,20.51
2017-01-02T01:03:43.879Z,20.57
2017-01-02T01:04:44.700Z,20.52
2017-01-02T01:05:44.729Z,20.51
2017-01-02T01:06:44.745Z,20.51
2017-01-02T01:07:44.774Z,20.39
2017-01-02T01:08:44.014Z,20.54
2017-01-02T01:09:44.040Z,20.51
2017-01-02T01:10:44.060Z,20.48
2017-01-02T01:11:44.489Z,20.52
2017-01-02T01:12:44.514Z,20.42
2017-01-02T01:13:44.537Z,20.43
2017-01-02T01:14:44.967Z,20.39
2017-01-02T01:15:44.588Z,20.42
2017-01-02T01:16:45.021Z,20.42
2017-01-02T01:17:44.644Z,20.43
2017-01-02T01:18:44.278Z,20.38
2017-01-02T01:19:44.699Z,20.47
2017-01-02T01:20:44.723Z,20.41
2017-01-02T01:21:44.751Z,20.47
2017-01-02T01:22:44.780Z,20.48
2017-01-02T01:23:45.201Z,20.47
2017-01-02T01:24:44.830Z,20.39
2017-01-02T01:25:44.466Z,20.38
2017-01-02T01:26:44.884Z,20.39
2017-01-02T01:27:45.304Z,20.39
2017-01-02T01:28:44.541Z,20.35
2017-01-02T01:29:44.569Z,20.33
2017-01-02T01:30:44.998Z,20.33
2017-01-02T01:31:45.020Z,20.36
2017-01-02T01:32:45.435Z,20.41
2017-01-02T01:33:45.077Z,20.33
2017-01-02T01:34:44.695Z,20.42
2017-01-02T01:35:44.730Z,20.33
2017-01-02T01:36:45.159Z,20.41
2017-01-02T01:37:45.180Z,20.31
2017-01-02T01:38:44.808Z,20.38
2017-01-02T01:39:45.230Z,20.36
2017-01-02T01:40:45.651Z,20.35
2017-01-02T01:41:44.886Z,20.38
2017-01-02T01:42:45.307Z,20.29
2017-01-02T01:43:45.731Z,20.32
2017-01-02T01:44:44.964Z,20.24
2017-01-02T01:45:45.785Z,20.33
2017-01-02T01:46:45.414Z,20.28
2017-01-02T01:47:45.443Z,20.32
2017-01-02T01:48:45.476Z,20.32
2017-01-02T01:49:45.879Z,20.29
2017-01-02T01:50:45.520Z,20.28
2017-01-02T01:51:45.557Z,20.29
2017-01-02T01:52:45.174Z,20.29
2017-01-02T01:53:45.595Z,20.31
2017-01-02T01:54:45.228Z,20.31
2017-01-02T01:55:45.657Z,20.33
2017-01-02T01:56:46.081Z,20.29
2017-01-02T01:57:46.102Z,20.26
2017-01-02T01:58:45.334Z,20.24
2017-01-02T01:59:45.755Z,20.29
2017-01-02T02:00:46.184Z,20.24
2017-01-02T02:01:45.813Z,20.21
2017-01-02T02:02:46.233Z,20.28
2017-01-02T02:03:45.470Z,20.29
2017-01-02T02:04:45.495Z,20.23
2017-01-02T02:05:46.312Z,20.23
2017-01-02T02:06:46.344Z,20.26
2017-01-02T02:07:45.968Z,20.16
2017-01-02T02:08:45.998Z,20.18
2017-01-02T02:09:46.023Z,20.17
2017-01-02T02:10:45.643Z,20.16
2017-01-02T02:11:46.076Z,20.17
2017-01-02T02:12:45.705Z,20.17
2017-01-02T02:13:46.530Z,20.18
2017-01-02T02:14:46.562Z,20.21
2017-01-02T02:15:46.179Z,20.21
2017-01-02T02:16:46.212Z,20.21
2017-01-02T02:17:45.836Z,20.14
2017-01-02T02:18:45.869Z,20.21
2017-01-02T02:19:46.285Z,20.21
2017-01-02T02:20:45.914Z,20.16
2017-01-02T02:21:46.731Z,20.13
2017-01-02T02:22:46.760Z,20.18
2017-01-02T02:23:46.785Z,20.2
2017-01-02T02:24:46.417Z,20.14
2017-01-02T02:25:46.054Z,20.18
2017-01-02T02:26:46.103Z,20.2
2017-01-02T02:27:46.500Z,20.17
2017-01-02T02:28:46.135Z,20.21
2017-01-02T02:29:46.549Z,20.17
2017-01-02T02:30:46.574Z,20.17
2017-01-02T02:31:46.610Z,20.2
2017-01-02T02:32:46.627Z,20.14
2017-01-02T02:33:46.265Z,20.17
2017-01-02T02:34:46.685Z,20.23
2017-01-02T02:35:46.709Z,20.2
2017-01-02T02:36:46.738Z,20.18
2017-01-02T02:37:46.759Z,20.17
2017-01-02T02:38:47.188Z,20.16
2017-01-02T02:39:47.213Z,20.23
2017-01-02T02:40:46.841Z,20.18
2017-01-02T02:41:46.469Z,20.17
2017-01-02T02:42:46.500Z,20.14
2017-01-02T02:43:47.319Z,20.16
2017-01-02T02:44:46.972Z,20.13
2017-01-02T02:45:46.577Z,20.18
2017-01-02T02:46:46.998Z,20.14
2017-01-02T02:47:47.026Z,20.17
2017-01-02T02:48:46.651Z,20.06
2017-01-02T02:49:47.483Z,20.08
2017-01-02T02:50:46.708Z,20.03
2017-01-02T02:51:47.137Z,20.06
2017-01-02T02:52:46.758Z,20.08
2017-01-02T02:53:46.782Z,20.1
2017-01-02T02:54:46.815Z,20.03
2017-01-02T02:55:46.840Z,20.05
2017-01-02T02:56:47.665Z,20.02
2017-01-02T02:57:47.285Z,20.08
2017-01-02T02:58:46.910Z,20.05
2017-01-02T02:59:46.943Z,20.06
2017-01-02T03:00:47.372Z,20.05
2017-01-02T03:01:47.396Z,20.11
2017-01-02T03:02:47.029Z,20.08
2017-01-02T03:03:47.442Z,19.99
2017-01-02T03:04:47.875Z,20.08
2017-01-02T03:05:47.890Z,20.08
2017-01-02T03:06:47.532Z,19.99
2017-01-02T03:07:47.552Z,20.1
2017-01-02T03:08:47.577Z,20.08
2017-01-02T03:09:47.218Z,20.1
2017-01-02T03:10:47.631Z,20.06
2017-01-02T03:11:47.263Z,20.1
2017-01-02T03:12:47.692Z,20.03
2017-01-02T03:13:47.717Z,20.03
2017-01-02T03:14:48.121Z,20.08
2017-01-02T03:15:48.162Z,20.06
2017-01-02T03:16:47.391Z,20.05
2017-01-02T03:17:47.424Z,20.02
2017-01-02T03:18:47.444Z,20.03
2017-01-02T03:19:47.473Z,19.94
2017-01-02T03:20:47.898Z,20.03
2017-01-02T03:21:47.922Z,20.06
2017-01-02T03:22:47.551Z,19.99
2017-01-02T03:23:47.584Z,19.96
2017-01-02T03:24:48.001Z,20.05
2017-01-02T03:25:48.021Z,19.96
2017-01-02T03:26:47.654Z,20.02
2017-01-02T03:27:48.079Z,19.99
2017-01-02T03:28:48.104Z,19.98
2017-01-02T03:29:48.534Z,19.91
2017-01-02T03:30:47.757Z,19.96
2017-01-02T03:31:47.790Z,19.95
2017-01-02T03:32:48.206Z,20.01
2017-01-02T03:33:48.659Z,20.03
2017-01-02T03:34:48.267Z,19.95
2017-01-02T03:35:47.896Z,19.95
2017-01-02T03:36:48.318Z,19.92
2017-01-02T03:37:48.342Z,19.98
2017-01-02T03:38:48.372Z,19.98
2017-01-02T03:39:47.995Z,19.99
2017-01-02T03:40:48.030Z,20.02
2017-01-02T03:41:48.053Z,19.94
2017-01-02T03:42:48.478Z,19.99
2017-01-02T03:43:48.496Z,20.03
2017-01-02T03:44:48.533Z,19.88
2017-01-02T03:45:48.952Z,19.95
2017-01-02T03:46:48.576Z,19.95
2017-01-02T03:47:49.005Z,19.94
2017-01-02T03:48:48.237Z,19.98
2017-01-02T03:49:48.662Z,19.91
2017-01-02T03:50:49.075Z,19.99
2017-01-02T03:51:48.316Z,19.95
2017-01-02T03:52:48.732Z,19.92
2017-01-02T03:53:48.765Z,19.96
2017-01-02T03:54:49.186Z,19.94
2017-01-02T03:55:48.834Z,19.95
2017-01-02T03:56:49.242Z,19.94
2017-01-02T03:57:49.264Z,19.87
2017-01-02T03:58:49.293Z,19.86
2017-01-02T03:59:48.921Z,19.87
2017-01-02T04:00:48.550Z,19.95
2017-01-02T04:01:49.371Z,19.94
2017-01-02T04:02:48.995Z,19.86
2017-01-02T04:03:48.632Z,19.92
2017-01-02T04:04:48.663Z,19.91
2017-01-02T04:05:49.501Z,19.87
2017-01-02T04:06:49.502Z,19.86
2017-01-02T04:07:49.531Z,19.87
2017-01-02T04:08:49.159Z,19.91
2017-01-02T04:09:49.188Z,19.91
2017-01-02T04:10:48.812Z,19.86
2017-01-02T04:11:49.237Z,19.88
2017-01-02T04:12:48.862Z,19.83
2017-01-02T04:13:48.891Z,19.86
2017-01-02T04:14:49.315Z,19.88
2017-01-02T04:15:48.950Z,19.84
2017-01-02T04:16:49.761Z,19.87
2017-01-02T04:17:49.390Z,19.87
2017-01-02T04:18:49.418Z,19.86
2017-01-02T04:19:49.446Z,19.84
2017-01-02T04:20:49.071Z,19.87
2017-01-02T04:21:49.500Z,19.8
2017-01-02T04:22:49.525Z,19.84
2017-01-02T04:23:49.150Z,19.84
2017-01-02T04:24:49.979Z,19.88
2017-01-02T04:25:49.607Z,19.84
2017-01-02T04:26:49.624Z,19.84
2017-01-02T04:27:49.268Z,19.81
2017-01-02T04:28:50.068Z,19.86
2017-01-02T04:29:50.106Z,19.8
2017-01-02T04:30:49.350Z,19.8
2017-01-02T04:31:50.171Z,19.84
2017-01-02T04:32:49.789Z,19.78
2017-01-02T04:33:50.205Z,19.83
2017-01-02T04:34:49.833Z,19.81
2017-01-02T04:35:49.470Z,19.77
2017-01-02T04:36:49.895Z,19.76
2017-01-02T04:37:49.915Z,19.8
2017-01-02T04:38:49.940Z,19.87
2017-01-02T04:39:49.969Z,19.78
2017-01-02T04:40:49.993Z,19.77
2017-01-02T04:41:50.410Z,19.78
2017-01-02T04:42:50.050Z,19.83
2017-01-02T04:43:50.099Z,19.78
2017-01-02T04:44:50.096Z,19.8
2017-01-02T04:45:49.732Z,19.78
2017-01-02T04:46:50.154Z,19.76
2017-01-02T04:47:49.790Z,19.74
2017-01-02T04:48:50.603Z,19.8
2017-01-02T04:49:50.231Z,19.77
2017-01-02T04:50:50.252Z,19.73
2017-01-02T04:51:50.285Z,19.74
2017-01-02T04:52:49.913Z,19.68
2017-01-02T04:53:50.334Z,19.69
2017-01-02T04:54:49.966Z,19.78
2017-01-02T04:55:49.991Z,19.76
2017-01-02T04:56:50.416Z,19.76
2017-01-02T04:57:50.470Z,19.73
2017-01-02T04:58:50.861Z,19.78
2017-01-02T04:59:50.886Z,19.81
2017-01-02T05:00:50.123Z,19.8
2017-01-02T05:01:50.547Z,19.76
2017-01-02T05:02:50.188Z,19.73
2017-01-02T05:03:50.593Z,19.69
2017-01-02T05:04:50.221Z,19.76
2017-01-02T05:05:50.262Z,19.69
2017-01-02T05:06:50.674Z,19.69
2017-01-02T05:07:50.703Z,19.71
2017-01-02T05:08:50.728Z,19.74
2017-01-02T05:09:50.749Z,19.68
2017-01-02T05:10:51.181Z,19.69
2017-01-02T05:11:50.806Z,19.66
2017-01-02T05:12:50.831Z,19.63
2017-01-02T05:13:50.463Z,19.68
2017-01-02T05:14:50.479Z,19.68
2017-01-02T05:15:50.908Z,19.68
2017-01-02T05:16:50.541Z,19.74
2017-01-02T05:17:50.963Z,19.65
2017-01-02T05:18:50.595Z,19.66
2017-01-02T05:19:50.623Z,19.66
2017-01-02T05:20:51.039Z,19.63
2017-01-02T05:21:51.069Z,19.74
2017-01-02T05:22:50.693Z,19.63
2017-01-02T05:23:51.518Z,19.61
2017-01-02T05:24:51.147Z,19.63
2017-01-02T05:25:51.564Z,19.68
2017-01-02T05:26:50.805Z,19.71
2017-01-02T05:27:50.821Z,19.68
2017-01-02T05:28:51.250Z,19.65
2017-01-02T05:29:51.271Z,19.74
2017-01-02T05:30:50.907Z,19.76
2017-01-02T05:31:51.332Z,19.73
2017-01-02T05:32:50.960Z,19.77
2017-01-02T05:33:50.981Z,19.73
2017-01-02T05:34:51.007Z,19.77
2017-01-02T05:35:51.431Z,19.77
2017-01-02T05:36:51.451Z,19.81
2017-01-02T05:37:51.485Z,19.84
2017-01-02T05:38:51.505Z,19.87
2017-01-02T05:39:51.537Z,19.87
2017-01-02T05:40:51.166Z,19.86
2017-01-02T05:41:52.019Z,19.95
2017-01-02T05:42:51.621Z,19.94
2017-01-02T05:43:51.638Z,20.02
2017-01-02T05:44:51.665Z,19.95
2017-01-02T05:45:51.299Z,19.95
2017-01-02T05:46:51.326Z,20.05
2017-01-02T05:47:51.742Z,20.1
2017-01-02T05:48:51.376Z,20.05
2017-01-02T05:49:51.797Z,20.13
2017-01-02T05:50:51.821Z,20.14
2017-01-02T05:51:51.878Z,20.14
2017-01-02T05:52:51.475Z,20.18
2017-01-02T05:53:51.904Z,20.13
2017-01-02T05:54:51.927Z,20.16
2017-01-02T05:55:51.557Z,20.21
2017-01-02T05:56:51.990Z,20.29
2017-01-02T05:57:51.610Z,20.28
2017-01-02T05:58:52.039Z,20.29
2017-01-02T05:59:51.660Z,20.35
2017-01-02T06:00:51.690Z,20.35
2017-01-02T06:01:52.114Z,20.35
2017-01-02T06:02:52.142Z,20.41
2017-01-02T06:03:52.558Z,20.36
2017-01-02T06:04:51.795Z,20.41
2017-01-02T06:05:52.216Z,20.55
2017-01-02T06:06:52.237Z,20.5
2017-01-02T06:07:51.878Z,20.5
2017-01-02T06:08:51.899Z,20.48
2017-01-02T06:09:52.715Z,20.58
2017-01-02T06:10:52.772Z,20.57
2017-01-02T06:11:52.760Z,20.55
2017-01-02T06:12:52.797Z,20.57
2017-01-02T06:13:52.822Z,20.64
2017-01-02T06:14:52.055Z,20.62
2017-01-02T06:15:52.083Z,20.64
2017-01-02T06:16:52.500Z,20.64
2017-01-02T06:17:52.533Z,20.66
2017-01-02T06:18:52.166Z,20.72
2017-01-02T06:19:52.586Z,20.58
2017-01-02T06:20:52.613Z,20.61
2017-01-02T06:21:53.032Z,20.69
2017-01-02T06:22:52.268Z,20.72
2017-01-02T06:23:52.681Z,20.73
2017-01-02T06:24:52.350Z,20.64
2017-01-02T06:25:52.346Z,20.74
2017-01-02T06:26:53.158Z,20.72
2017-01-02T06:27:52.400Z,20.7
2017-01-02T06:28:52.433Z,20.76
2017-01-02T06:29:52.849Z,20.74
2017-01-02T06:30:52.878Z,20.67
2017-01-02T06:31:52.510Z,20.67
2017-01-02T06:32:52.559Z,20.77
2017-01-02T06:33:52.552Z,20.73
2017-01-02T06:34:52.589Z,20.84
2017-01-02T06:35:53.005Z,20.76
2017-01-02T06:36:53.035Z,20.77
2017-01-02T06:37:53.059Z,20.76
2017-01-02T06:38:53.480Z,20.89
2017-01-02T06:39:53.109Z,20.74
2017-01-02T06:40:53.533Z,20.85
2017-01-02T06:41:52.770Z,20.88
2017-01-02T06:42:53.191Z,20.89
2017-01-02T06:43:53.611Z,20.85
2017-01-02T06:44:52.852Z,20.88
2017-01-02T06:45:53.268Z,20.88
2017-01-02T06:46:53.302Z,20.87
2017-01-02T06:47:53.322Z,20.89
2017-01-02T06:48:53.751Z,20.87
2017-01-02T06:49:53.367Z,20.88
2017-01-02T06:50:53.404Z,20.87
2017-01-02T06:51:53.445Z,20.89
2017-01-02T06:52:53.502Z,20.87
2017-01-02T06:53:53.082Z,20.89
2017-01-02T06:54:53.511Z,20.89
2017-01-02T06:55:53.141Z,20.89
2017-01-02T06:56:53.169Z,20.84
2017-01-02T06:57:53.985Z,20.77
2017-01-02T06:58:53.213Z,20.85
2017-01-02T06:59:53.642Z,20.82
2017-01-02T07:00:53.269Z,20.72
2017-01-02T07:01:53.696Z,20.67
2017-01-02T07:02:53.321Z,20.8
2017-01-02T07:03:53.754Z,20.79
2017-01-02T07:04:53.774Z,20.74
2017-01-02T07:05:54.191Z,20.7
2017-01-02T07:06:54.220Z,20.74
2017-01-02T07:07:53.456Z,20.8
2017-01-02T07:08:53.481Z,20.76
2017-01-02T07:09:53.498Z,20.77
2017-01-02T07:10:53.935Z,20.74
2017-01-02T07:11:53.987Z,20.74
2017-01-02T07:12:53.592Z,20.7
2017-01-02T07:13:54.013Z,20.74
2017-01-02T07:14:54.042Z,20.74
2017-01-02T07:15:54.462Z,20.72
2017-01-02T07:16:54.091Z,20.77
2017-01-02T07:17:54.128Z,20.73
2017-01-02T07:18:54.149Z,20.77
2017-01-02T07:19:54.173Z,20.73
2017-01-02T07:20:54.198Z,20.77
2017-01-02T07:21:53.835Z,20.69
2017-01-02T07:22:54.257Z,20.82
2017-01-02T07:23:54.284Z,20.82
2017-01-02T07:24:54.703Z,20.74
2017-01-02T07:25:54.721Z,20.77
2017-01-02T07:26:53.966Z,20.77
2017-01-02T07:27:53.991Z,20.73
2017-01-02T07:28:54.412Z,20.8
2017-01-02T07:29:54.838Z,20.74
2017-01-02T07:30:54.102Z,20.84
2017-01-02T07:31:54.887Z,20.77
2017-01-02T07:32:54.915Z,20.66
2017-01-02T07:33:54.948Z,20.79
2017-01-02T07:34:54.176Z,20.64
2017-01-02T07:35:54.201Z,20.76
2017-01-02T07:36:54.621Z,20.67
2017-01-02T07:37:54.655Z,20.77
2017-01-02T07:38:54.282Z,20.66
2017-01-02T07:39:54.312Z,20.66
2017-01-02T07:40:55.125Z,20.74
2017-01-02T07:41:54.757Z,20.59
2017-01-02T07:42:55.178Z,20.7
2017-01-02T07:43:54.819Z,20.69
2017-01-02T07:44:54.440Z,20.66
2017-01-02T07:45:54.465Z,20.62
2017-01-02T07:46:55.291Z,20.73
2017-01-02T07:47:54.523Z,20.66
2017-01-02T07:48:54.547Z,20.57
2017-01-02T07:49:54.972Z,20.62
2017-01-02T07:50:54.992Z,20.66
2017-01-02T07:51:55.021Z,20.62
2017-01-02T07:52:55.063Z,20.52
2017-01-02T07:53:55.079Z,20.67
2017-01-02T07:54:54.707Z,20.67
2017-01-02T07:55:54.736Z,20.64
2017-01-02T07:56:55.553Z,20.66
2017-01-02T07:57:55.578Z,20.54
2017-01-02T07:58:55.612Z,20.61
2017-01-02T07:59:55.631Z,20.55
2017-01-02T08:00:55.259Z,20.61
2017-01-02T08:01:55.681Z,20.55
2017-01-02T08:02:55.313Z,20.55
2017-01-02T08:03:55.751Z,20.61
2017-01-02T08:04:55.768Z,20.54
2017-01-02T08:05:55.399Z,20.48
2017-01-02T08:06:55.423Z,20.48
2017-01-02T08:07:55.448Z,20.52
2017-01-02T08:08:55.081Z,20.55
2017-01-02T08:09:55.098Z,20.43
2017-01-02T08:10:55.131Z,20.47
2017-01-02T08:11:55.551Z,20.47
2017-01-02T08:12:55.585Z,20.52
2017-01-02T08:13:55.606Z,20.55
2017-01-02T08:14:55.639Z,20.39
2017-01-02T08:15:55.663Z,20.43
2017-01-02T08:16:55.292Z,20.41
2017-01-02T08:17:55.316Z,20.47
2017-01-02T08:18:56.137Z,20.47
2017-01-02T08:19:56.166Z,20.41
2017-01-02T08:20:55.399Z,20.42
2017-01-02T08:21:55.429Z,20.36
2017-01-02T08:22:55.452Z,20.35
2017-01-02T08:23:55.877Z,20.36
2017-01-02T08:24:56.298Z,20.29
2017-01-02T08:25:55.526Z,20.35
2017-01-02T08:26:55.567Z,20.32
2017-01-02T08:27:55.984Z,20.32
2017-01-02T08:28:56.009Z,20.36
2017-01-02T08:29:56.021Z,20.35
2017-01-02T08:30:56.466Z,20.32
2017-01-02T08:31:56.093Z,20.33
2017-01-02T08:32:56.508Z,20.33
2017-01-02T08:33:56.536Z,20.32
2017-01-02T08:34:56.165Z,20.24
2017-01-02T08:35:55.798Z,20.23
2017-01-02T08:36:56.221Z,20.32
2017-01-02T08:37:56.648Z,20.32
2017-01-02T08:38:56.668Z,20.26
2017-01-02T08:39:56.693Z,20.29
2017-01-02T08:40:56.717Z,20.31
2017-01-02T08:41:56.350Z,20.29
2017-01-02T08:42:56.782Z,20.23
2017-01-02T08:43:56.404Z,20.23
2017-01-02T08:44:56.432Z,20.26
2017-01-02T08:45:56.065Z,20.23
2017-01-02T08:46:56.109Z,20.23
2017-01-02T08:47:56.511Z,20.21
2017-01-02T08:48:56.927Z,20.2
2017-01-02T08:49:56.564Z,20.16
2017-01-02T08:50:56.589Z,20.17
2017-01-02T08:51:56.617Z,20.16
2017-01-02T08:52:57.038Z,20.24
2017-01-02T08:53:56.275Z,20.13
2017-01-02T08:54:56.691Z,20.16
2017-01-02T08:55:57.116Z,20.16
2017-01-02T08:56:57.141Z,20.18
2017-01-02T08:57:57.177Z,20.21
2017-01-02T08:58:57.194Z,20.13
2017-01-02T08:59:56.427Z,20.18
2017-01-02T09:00:56.853Z,20.23
2017-01-02T09:01:56.876Z,20.2
2017-01-02T09:02:56.905Z,20.16
2017-01-02T09:03:56.929Z,20.16
2017-01-02T09:04:56.958Z,20.17
2017-01-02T09:05:56.587Z,20.16
2017-01-02T09:06:56.616Z,20.13
2017-01-02T09:07:56.645Z,20.17
2017-01-02T09:08:57.062Z,20.08
2017-01-02T09:09:57.506Z,20.14
2017-01-02T09:10:57.512Z,20.01
2017-01-02T09:11:57.536Z,20.11
2017-01-02T09:12:57.567Z,20.02
2017-01-02T09:13:57.209Z,20.06
2017-01-02T09:14:57.222Z,20.03
2017-01-02T09:15:57.651Z,20.1
2017-01-02T09:16:57.271Z,20.05
2017-01-02T09:17:57.301Z,20.03
2017-01-02T09:18:57.329Z,20.1
2017-01-02T09:19:57.358Z,20.05
2017-01-02T09:20:57.770Z,20.05
2017-01-02T09:21:57.407Z,20.03
2017-01-02T09:22:57.428Z,20.11
2017-01-02T09:23:57.864Z,20.03
2017-01-02T09:24:57.494Z,20.06
2017-01-02T09:25:57.510Z,20.1
2017-01-02T09:26:57.539Z,20.01
2017-01-02T09:27:57.964Z,20.03
2017-01-02T09:28:57.988Z,20.05
2017-01-02T09:29:57.217Z,19.99
2017-01-02T09:30:57.645Z,19.95
2017-01-02T09:31:57.673Z,20.05
2017-01-02T09:32:57.308Z,20.05
2017-01-02T09:33:57.732Z,20.02
2017-01-02T09:34:58.142Z,20.06
2017-01-02T09:35:57.778Z,19.98
2017-01-02T09:36:57.798Z,19.98
2017-01-02T09:37:57.827Z,19.92
2017-01-02T09:38:57.455Z,19.96
2017-01-02T09:39:57.884Z,19.95
2017-01-02T09:40:57.909Z,19.98
2017-01-02T09:41:57.934Z,19.96
2017-01-02T09:42:57.955Z,19.96
2017-01-02T09:43:58.391Z,19.99
2017-01-02T09:44:58.412Z,19.98
2017-01-02T09:45:58.055Z,19.94
2017-01-02T09:46:58.069Z,19.98
2017-01-02T09:47:58.090Z,19.96
2017-01-02T09:48:58.108Z,19.95
2017-01-02T09:49:58.536Z,19.99
2017-01-02T09:50:58.168Z,19.98
2017-01-02T09:51:58.589Z,19.92
2017-01-02T09:52:58.614Z,19.92
2017-01-02T09:53:58.658Z,19.99
2017-01-02T09:54:57.883Z,19.96
2017-01-02T09:55:58.700Z,19.96
2017-01-02T09:56:58.329Z,20.02
2017-01-02T09:57:58.382Z,19.95
2017-01-02T09:58:58.374Z,19.95
2017-01-02T09:59:58.811Z,19.95
2017-01-02T10:00:58.431Z,19.95
2017-01-02T10:01:58.460Z,20.03
2017-01-02T10:02:58.085Z,19.95
2017-01-02T10:03:58.906Z,19.92
2017-01-02T10:04:58.535Z,19.87
2017-01-02T10:05:58.564Z,19.98
2017-01-02T10:06:58.987Z,19.87
2017-01-02T10:07:59.013Z,19.95
2017-01-02T10:08:58.641Z,19.95
2017-01-02T10:09:58.678Z,19.98
2017-01-02T10:10:58.295Z,19.94
2017-01-02T10:11:58.720Z,19.98
2017-01-02T10:12:59.143Z,19.94
2017-01-02T10:13:58.785Z,19.96
2017-01-02T10:14:59.194Z,19.99
2017-01-02T10:15:58.822Z,19.99
2017-01-02T10:16:58.456Z,19.96
2017-01-02T10:17:58.880Z,19.88
2017-01-02T10:18:59.301Z,19.98
2017-01-02T10:19:58.926Z,19.95
2017-01-02T10:20:58.567Z,19.95
2017-01-02T10:21:59.376Z,19.98
2017-01-02T10:22:59.416Z,19.96
2017-01-02T10:23:59.032Z,19.98
2017-01-02T10:24:58.661Z,19.92
2017-01-02T10:25:58.690Z,19.95
2017-01-02T10:26:59.534Z,19.94
2017-01-02T10:27:58.748Z,19.95
2017-01-02T10:28:59.168Z,19.92
2017-01-02T10:29:59.197Z,19.94
2017-01-02T10:30:59.614Z,19.94
2017-01-02T10:31:58.850Z,19.95
2017-01-02T10:32:59.267Z,19.96
2017-01-02T10:33:59.324Z,20.03
2017-01-02T10:34:59.320Z,19.96
2017-01-02T10:35:59.369Z,19.96
2017-01-02T10:36:58.978Z,19.96
2017-01-02T10:37:59.799Z,19.92
2017-01-02T10:38:59.827Z,19.92
2017-01-02T10:39:59.456Z,19.96
2017-01-02T10:40:59.473Z,19.94
2017-01-02T10:41:59.509Z,19.98
2017-01-02T10:42:59.147Z,19.94
2017-01-02T10:43:59.167Z,19.94
2017-01-02T10:44:59.981Z,19.96
2017-01-02T10:45:59.218Z,19.96
2017-01-02T10:47:00.038Z,19.94
2017-01-02T10:47:59.265Z,20.02
2017-01-02T10:48:59.298Z,19.95
2017-01-02T10:49:59.332Z,19.94
2017-01-02T10:50:59.740Z,19.98
2017-01-02T10:51:59.409Z,19.95
2017-01-02T10:53:00.194Z,20.01
2017-01-02T10:53:59.818Z,19.98
2017-01-02T10:55:00.251Z,19.98
2017-01-02T10:55:59.868Z,19.96
2017-01-02T10:56:59.904Z,20.02
2017-01-02T10:57:59.525Z,20.03
2017-01-02T10:58:59.558Z,19.98
2017-01-02T10:59:59.591Z,19.94
2017-01-02T11:01:00.035Z,19.96
2017-01-02T11:02:00.440Z,20.02
2017-01-02T11:03:00.449Z,19.94
2017-01-02T11:03:59.694Z,19.98
2017-01-02T11:04:59.718Z,19.99
2017-01-02T11:06:00.139Z,19.99
2017-01-02T11:07:00.171Z,19.99
2017-01-02T11:08:00.192Z,19.94
2017-01-02T11:09:00.609Z,19.87
2017-01-02T11:10:00.638Z,19.92
2017-01-02T11:11:00.270Z,19.99
2017-01-02T11:11:59.899Z,19.98
2017-01-02T11:13:00.324Z,19.84
2017-01-02T11:13:59.953Z,19.92
2017-01-02T11:15:00.406Z,19.94
2017-01-02T11:16:00.794Z,19.98
2017-01-02T11:17:00.428Z,19.86
2017-01-02T11:18:00.860Z,19.87
2017-01-02T11:19:00.480Z,19.92
2017-01-02T11:20:00.509Z,19.94
2017-01-02T11:21:00.529Z,19.96
2017-01-02T11:22:00.175Z,19.98
2017-01-02T11:23:00.587Z,19.92
2017-01-02T11:24:00.608Z,19.88
2017-01-02T11:25:01.045Z,19.91
2017-01-02T11:26:01.061Z,19.96
2017-01-02T11:27:00.298Z,19.88
2017-01-02T11:28:00.322Z,19.88
2017-01-02T11:29:00.743Z,19.86
2017-01-02T11:30:00.364Z,19.81
2017-01-02T11:31:00.401Z,19.81
2017-01-02T11:32:00.819Z,19.84
2017-01-02T11:33:01.247Z,19.88
2017-01-02T11:34:01.275Z,19.86
2017-01-02T11:35:00.508Z,19.94
2017-01-02T11:36:00.537Z,19.87
2017-01-02T11:37:00.609Z,19.87
2017-01-02T11:38:00.583Z,19.88
2017-01-02T11:39:01.007Z,19.92
2017-01-02T11:40:01.040Z,19.83
2017-01-02T11:41:00.665Z,19.87
2017-01-02T11:42:01.489Z,19.86
2017-01-02T11:43:01.510Z,19.83
2017-01-02T11:44:01.534Z,19.84
2017-01-02T11:45:01.564Z,19.88
2017-01-02T11:46:01.200Z,19.88
2017-01-02T11:47:00.821Z,19.84
2017-01-02T11:48:01.646Z,19.91
2017-01-02T11:49:01.670Z,19.87
2017-01-02T11:50:00.927Z,19.87
2017-01-02T11:51:01.320Z,19.88
2017-01-02T11:52:00.956Z,19.91
2017-01-02T11:53:00.980Z,19.87
2017-01-02T11:54:01.417Z,19.95
2017-01-02T11:55:01.427Z,19.95
2017-01-02T11:56:01.852Z,19.91
2017-01-02T11:57:01.883Z,19.86
2017-01-02T11:58:01.096Z,19.92
2017-01-02T11:59:01.929Z,19.98
2017-01-02T12:00:01.554Z,19.98
2017-01-02T12:01:01.982Z,19.87
2017-01-02T12:02:01.207Z,19.96
2017-01-02T12:03:01.636Z,19.96
2017-01-02T12:04:02.065Z,19.95
2017-01-02T12:05:02.082Z,19.95
2017-01-02T12:06:02.126Z,20.01
2017-01-02T12:07:01.743Z,19.99
2017-01-02T12:08:01.772Z,20.01
2017-01-02T12:09:02.188Z,20.03
2017-01-02T12:10:01.833Z,20.03
2017-01-02T12:11:02.261Z,20.02
2017-01-02T12:12:02.247Z,20.03
2017-01-02T12:13:01.477Z,20.08
2017-01-02T12:14:01.909Z,20.11
2017-01-02T12:15:01.940Z,20.03
2017-01-02T12:16:02.353Z,20.01
2017-01-02T12:17:02.385Z,20.03
2017-01-02T12:18:02.012Z,20.05
2017-01-02T12:19:02.445Z,20.02
2017-01-02T12:20:02.459Z,20.08
2017-01-02T12:21:02.496Z,20.06
2017-01-02T12:22:02.129Z,20.05
2017-01-02T12:23:02.148Z,20.06
2017-01-02T12:24:02.173Z,20.01
2017-01-02T12:25:02.587Z,20.08
2017-01-02T12:26:01.831Z,20.06
2017-01-02T12:27:02.646Z,20.11
2017-01-02T12:28:02.282Z,20.1
2017-01-02T12:29:02.342Z,20.08
2017-01-02T12:30:02.726Z,20.1
2017-01-02T12:31:02.362Z,20.08
2017-01-02T12:32:01.984Z,20.02
2017-01-02T12:33:02.404Z,20.05
2017-01-02T12:34:02.833Z,20.03
2017-01-02T12:35:02.468Z,20.03
2017-01-02T12:36:02.887Z,20.08
2017-01-02T12:37:02.126Z,20.03
2017-01-02T12:38:02.151Z,20.1
2017-01-02T12:39:02.962Z,20.02
2017-01-02T12:40:02.594Z,20.02
2017-01-02T12:41:02.621Z,20.06
2017-01-02T12:42:03.057Z,20.01
2017-01-02T12:43:03.074Z,20.02
2017-01-02T12:44:02.316Z,19.94
2017-01-02T12:45:03.131Z,20.06
2017-01-02T12:46:02.364Z,20.03
2017-01-02T12:47:02.780Z,20.05
2017-01-02T12:48:02.802Z,20.03
2017-01-02T12:49:02.434Z,20.08
2017-01-02T12:50:02.857Z,20.06
2017-01-02T12:51:03.284Z,19.95
2017-01-02T12:52:02.913Z,19.99
2017-01-02T12:53:02.953Z,19.96
2017-01-02T12:54:03.369Z,19.96